tititudorancea.com
Station Historical Data
Daily Summary for January 18, 2019 Units:  Metric    English   Both
« Previous Day
Next Day »
Daily Weekly Monthly Yearly Custom
  High: Low: Average:
Temperature: -17.8 °C 15.4 °C 22.2 °C
Dew Point: -17.8 °C 9.9 °C 15.9 °C
Humidity: Humidity % 40 % 69 %
Wind Speed: 0 km/h 0 km/h 12.4 km/h
Wind Gust: 0 km/h - -
Wind:- - WSW
Pressure: 0 hPa 1003.6 hPa -
Precipitation: 1.27 mm    
Historical Graphs
 
 
Ararat weather Find more about Weather in Ararat, AU


 



 


Tabular Data for January 18, 2019
Time Temperature Dew Point Pressure Wind Wind Speed Wind Gust Humidity Rainfall Rate (Hourly)
-17.8 °C -17.8 °C 0 hPa Calm     Humidity % 0 mm
00:04 24.2 °C 15.2 °C 1007 hPa Calm     57 % 0 mm
00:09 24.2 °C 15.1 °C 1007 hPa Calm     57 % 0 mm
00:14 24.2 °C 15.4 °C 1007 hPa Calm     58 % 0 mm
00:19 23.9 °C 15.4 °C 1007.7 hPa SSW 4.8 km/h 1.1 km/h 59 % 0 mm
00:24 23.9 °C 15.4 °C 1009 hPa West 14.8 km/h 13 km/h 59 % 0 mm
00:29 24.3 °C 16.1 °C 1008 hPa North 11.1 km/h 4.2 km/h 60 % 0 mm
00:34 24 °C 16.8 °C 1008 hPa North 6.4 km/h 3.2 km/h 64 % 0.51 mm
00:39 23.2 °C 17 °C 1008 hPa WNW 5.6 km/h 0.6 km/h 68 % 0.51 mm
00:44 22.8 °C 17 °C 1007.7 hPa WNW 1.9 km/h   70 % 0.51 mm
00:49 22.4 °C 17.3 °C 1007.7 hPa Calm     73 % 0.51 mm
00:54 22.1 °C 17.4 °C 1007.3 hPa Calm     75 % 0.51 mm
00:59 21.7 °C 17.7 °C 1007 hPa WNW 3.7 km/h 0.5 km/h 78 % 0.51 mm
01:04 21.3 °C 17.7 °C 1006.7 hPa WNW 3.2 km/h 1.9 km/h 80 % 0.51 mm
01:09 21.1 °C 17.7 °C 1006.7 hPa WNW 5.6 km/h 2.9 km/h 81 % 0.51 mm
01:14 20.8 °C 17.4 °C 1006.7 hPa WNW 1.9 km/h 0.2 km/h 81 % 0.51 mm
01:19 20.7 °C 17.6 °C 1006.3 hPa Calm     82 % 0.51 mm
01:24 20.7 °C 17.5 °C 1006.3 hPa WNW 5.6 km/h 3.5 km/h 82 % 0.51 mm
01:29 20.6 °C 17.6 °C 1006.3 hPa North 1.9 km/h   83 % 0.51 mm
01:34 20.5 °C 17.5 °C 1006.3 hPa WNW 3.7 km/h   83 % 0 mm
01:39 20.5 °C 17.7 °C 1006.3 hPa Calm     84 % 0 mm
01:44 20.4 °C 17.6 °C 1006 hPa Calm     84 % 0 mm
01:49 20.3 °C 17.7 °C 1006 hPa Calm     85 % 0 mm
01:54 20.2 °C 17.7 °C 1006 hPa Calm     86 % 0 mm
01:59 20.1 °C 17.7 °C 1005.6 hPa Calm     86 % 0 mm
02:04 20.1 °C 17.7 °C 1005.3 hPa Calm     86 % 0 mm
02:09 19.9 °C 17.7 °C 1005.3 hPa WNW 3.7 km/h 1.8 km/h 87 % 0 mm
02:14 19.9 °C 17.7 °C 1005.3 hPa Calm     87 % 0 mm
02:19 19.8 °C 17.6 °C 1005 hPa Calm     87 % 0 mm
02:24 19.8 °C 17.7 °C 1005 hPa Calm     88 % 0 mm
02:29 19.9 °C 18 °C 1005 hPa Calm     89 % 0 mm
02:34 20 °C 18.1 °C 1005 hPa Calm     89 % 0 mm
02:39 19.9 °C 17.8 °C 1005 hPa North 5.6 km/h 2.3 km/h 88 % 0 mm
02:44 19.8 °C 17.6 °C 1005 hPa Calm     87 % 0 mm
02:49 19.8 °C 17.6 °C 1005 hPa Calm     87 % 0 mm
02:54 19.8 °C 17.6 °C 1005 hPa Calm     87 % 0 mm
02:59 19.7 °C 17.5 °C 1004.6 hPa Calm     87 % 0 mm
03:04 19.7 °C 17.5 °C 1004.6 hPa North 3.7 km/h 2.9 km/h 87 % 0 mm
03:09 19.7 °C 17.4 °C 1004.3 hPa North 3.7 km/h 2.9 km/h 87 % 0 mm
03:14 19.7 °C 17.4 °C 1004.3 hPa WNW 5.6 km/h 2.7 km/h 87 % 0 mm
03:19 19.7 °C 17.5 °C 1003.9 hPa North 3.7 km/h 0.3 km/h 87 % 0 mm
03:24 20 °C 17.4 °C 1003.9 hPa WNW 5.6 km/h 3.4 km/h 85 % 0 mm
03:29 20.4 °C 17.4 °C 1004.3 hPa WNW 6.4 km/h 5.1 km/h 83 % 0 mm
03:34 20.6 °C 17.2 °C 1004.3 hPa WNW 5.6 km/h 1 km/h 81 % 0 mm
03:39 20.8 °C 17.2 °C 1003.9 hPa North 6.4 km/h 2.7 km/h 80 % 0 mm
03:44 20.9 °C 16.9 °C 1003.9 hPa WNW 5.6 km/h 3.1 km/h 78 % 0 mm
03:49 21.1 °C 16.7 °C 1003.9 hPa North 5.6 km/h 4 km/h 76 % 0 mm
03:54 21.2 °C 16.6 °C 1003.9 hPa WNW 9.7 km/h 6.3 km/h 75 % 0 mm
03:59 21.4 °C 16.6 °C 1003.9 hPa WNW 3.7 km/h 2.7 km/h 74 % 0 mm
04:04 21.5 °C 16.4 °C 1003.9 hPa North 5.6 km/h 3.7 km/h 73 % 0 mm
04:09 21.6 °C 16.8 °C 1003.9 hPa WNW 3.7 km/h   74 % 0 mm
04:14 21.5 °C 16.4 °C 1003.9 hPa WNW 3.7 km/h 1.9 km/h 73 % 0 mm
04:19 21.3 °C 16.5 °C 1003.6 hPa WNW 5.6 km/h 2.6 km/h 74 % 0 mm
04:24 21.2 °C 16.4 °C 1003.6 hPa WNW 4.8 km/h 2.4 km/h 74 % 0 mm
04:29 21 °C 16.6 °C 1003.6 hPa WNW 7.4 km/h 5.3 km/h 76 % 0 mm
04:34 20.8 °C 16.4 °C 1003.6 hPa North 5.6 km/h 0.2 km/h 76 % 0 mm
04:39 20.6 °C 16.4 °C 1003.6 hPa Calm     77 % 0 mm
04:44 20.4 °C 16.4 °C 1003.9 hPa WNW 5.6 km/h 2.9 km/h 78 % 0 mm
04:49 20.3 °C 16.5 °C 1004.3 hPa WNW 5.6 km/h 4.2 km/h 79 % 0 mm
04:54 20.2 °C 16.4 °C 1004.3 hPa North 3.7 km/h 2.9 km/h 79 % 0 mm
04:59 20.2 °C 16.4 °C 1004.3 hPa WNW 5.6 km/h 2.1 km/h 79 % 0 mm
05:04 20.6 °C 16.4 °C 1004.6 hPa North 3.7 km/h 1.9 km/h 77 % 0 mm
05:09 20.9 °C 16.3 °C 1004.6 hPa WNW 5.6 km/h 4.3 km/h 75 % 0 mm
05:14 21 °C 16.4 °C 1005 hPa WNW 9.3 km/h 8.4 km/h 75 % 0 mm
05:19 21.1 °C 16.3 °C 1005 hPa North 9.3 km/h 6.4 km/h 74 % 0 mm
05:24 21.2 °C 16.1 °C 1005 hPa North 6.4 km/h 4.5 km/h 73 % 0 mm
05:29 21.1 °C 16.2 °C 1005 hPa North 5.6 km/h 4.8 km/h 74 % 0 mm
05:34 20.8 °C 16.2 °C 1005 hPa WNW 7.4 km/h 6.6 km/h 75 % 0 mm
05:39 20.6 °C 16.2 °C 1005 hPa WNW 7.4 km/h 6.1 km/h 76 % 0 mm
05:44 20.6 °C 16.2 °C 1005.3 hPa WNW 7.4 km/h 6.9 km/h 76 % 0 mm
05:49 20.6 °C 16.2 °C 1005 hPa WNW 5.6 km/h 4.5 km/h 76 % 0 mm
05:54 20.6 °C 16.2 °C 1005 hPa North 5.6 km/h 1.4 km/h 76 % 0 mm
05:59 20.6 °C 16.2 °C 1005 hPa WNW 5.6 km/h 3.1 km/h 76 % 0 mm
06:04 20.6 °C 16 °C 1005.3 hPa Calm     75 % 0 mm
06:09 20.5 °C 16.1 °C 1005.6 hPa WNW 5.6 km/h 4 km/h 76 % 0 mm
06:14 20.5 °C 16.1 °C 1005.3 hPa Calm     76 % 0 mm
06:19 20.5 °C 16.1 °C 1005.3 hPa Calm     76 % 0 mm
06:24 20.6 °C 16.2 °C 1005.3 hPa Calm     76 % 0 mm
06:29 20.4 °C 16.3 °C 1005.3 hPa WNW 3.7 km/h 1.9 km/h 77 % 0 mm
06:34 20.3 °C 16.2 °C 1005.3 hPa Calm     77 % 0 mm
06:39 20.2 °C 16.2 °C 1005.3 hPa WNW 6.4 km/h 3.9 km/h 78 % 0 mm
06:44 20.2 °C 16.2 °C 1005.3 hPa WNW 5.6 km/h 2.4 km/h 78 % 0 mm
06:49 20.1 °C 16.2 °C 1005.3 hPa WNW 3.2 km/h 0.6 km/h 78 % 0 mm
06:54 20.2 °C 16.2 °C 1005.6 hPa WNW 5.6 km/h 3.9 km/h 78 % 0 mm
06:59 20.2 °C 16.3 °C 1005.6 hPa North 5.6 km/h 4.3 km/h 78 % 0 mm
07:04 20.3 °C 16.4 °C 1006 hPa WNW 7.4 km/h 3.9 km/h 78 % 0 mm
07:09 20.5 °C 16.6 °C 1006.3 hPa WNW 5.6 km/h 4 km/h 78 % 0 mm
07:14 20.8 °C 16.6 °C 1007 hPa North 7.4 km/h 4.7 km/h 77 % 0 mm
07:19 21 °C 16.6 °C 1007.3 hPa North 9.3 km/h 6.8 km/h 76 % 0 mm
07:24 21.8 °C 17 °C 1007.3 hPa West 18.5 km/h 12.6 km/h 74 % 0.25 mm
07:29 21.9 °C 16.8 °C 1007 hPa West 13 km/h 12.7 km/h 73 % 0.25 mm
07:34 21.8 °C 17.2 °C 1007.3 hPa West 9.7 km/h 6.4 km/h 75 % 0.51 mm
07:39 21.5 °C 17.1 °C 1007 hPa West 13 km/h 7.2 km/h 76 % 0.51 mm
07:44 21.3 °C 17.1 °C 1006.7 hPa WSW 4.8 km/h 1.4 km/h 77 % 0.51 mm
07:49 21.2 °C 17.2 °C 1006.3 hPa WSW 4.8 km/h 0.8 km/h 78 % 0.51 mm
07:54 21.1 °C 17.3 °C 1005.6 hPa North 5.6 km/h 5 km/h 79 % 0.51 mm
07:59 21 °C 17.4 °C 1005.6 hPa WSW 7.4 km/h 4.5 km/h 80 % 0.51 mm
08:04 21.1 °C 17.4 °C 1005.6 hPa West 5.6 km/h 2.6 km/h 80 % 0.51 mm
08:09 21.2 °C 17.8 °C 1006.3 hPa West 8 km/h 7.1 km/h 81 % 0.51 mm
08:14 21.2 °C 17.8 °C 1006.3 hPa WSW 13 km/h 4.2 km/h 81 % 0.51 mm
08:19 21.2 °C 17.8 °C 1006 hPa Calm     81 % 0.51 mm
08:24 21.2 °C 17.8 °C 1006.3 hPa Calm     81 % 0.25 mm
08:29 21.3 °C 18.1 °C 1006.3 hPa Calm     82 % 0.25 mm
08:34 21.6 °C 18.4 °C 1006 hPa North 4.8 km/h 1.1 km/h 82 % 0 mm
08:39 21.8 °C 18 °C 1006 hPa Calm     79 % 0 mm
08:44 21.9 °C 18.1 °C 1006 hPa North 5.6 km/h   79 % 0 mm
08:49 22.3 °C 17.8 °C 1006 hPa WSW 5.6 km/h 4 km/h 76 % 0 mm
08:54 22.6 °C 18.1 °C 1006 hPa WSW 6.4 km/h 4 km/h 76 % 0 mm
08:59 22.7 °C 18.1 °C 1006.7 hPa WSW 6.4 km/h 4.3 km/h 75 % 0 mm
09:04 22.7 °C 18.1 °C 1007 hPa WSW 9.3 km/h 5.5 km/h 75 % 0 mm
09:09 22.7 °C 18.1 °C 1007.7 hPa West 11.1 km/h 8.2 km/h 75 % 0 mm
09:14 22.7 °C 18.1 °C 1007.7 hPa North 17.7 km/h 8.5 km/h 75 % 0 mm
09:19 22.6 °C 17.5 °C 1007.3 hPa North 20.4 km/h 14.2 km/h 73 % 0.25 mm
09:24 22.6 °C 17.4 °C 1007 hPa NNW 18.5 km/h 8.9 km/h 73 % 0.25 mm
09:29 22.4 °C 17.6 °C 1007.3 hPa North 14.8 km/h 7.7 km/h 74 % 0.25 mm
09:34 22.3 °C 17.6 °C 1007 hPa NNW 11.3 km/h 6.4 km/h 75 % 0.25 mm
09:39 22.2 °C 17.5 °C 1007 hPa North 13 km/h 8.9 km/h 75 % 0.25 mm
09:44 22.2 °C 17.5 °C 1007 hPa NNW 11.1 km/h 8.4 km/h 75 % 0.25 mm
09:49 22.2 °C 17.4 °C 1007 hPa NNW 14.8 km/h 6.4 km/h 74 % 0.25 mm
09:54 22.4 °C 17.6 °C 1006.7 hPa West 9.3 km/h 5.3 km/h 74 % 0.25 mm
09:59 22.7 °C 17.8 °C 1006.3 hPa West 5.6 km/h 4.8 km/h 74 % 0.25 mm
10:04 22.9 °C 17.8 °C 1006.3 hPa North 11.1 km/h 5.1 km/h 73 % 0.25 mm
10:09 23.3 °C 18 °C 1006.3 hPa North 9.3 km/h 6.3 km/h 72 % 0.25 mm
10:14 23.7 °C 17.9 °C 1006.3 hPa North 7.4 km/h 5.1 km/h 70 % 0.25 mm
10:19 24 °C 18.2 °C 1006.3 hPa North 5.6 km/h 0.5 km/h 70 % 0 mm
10:24 24.4 °C 18.1 °C 1006.7 hPa North 7.4 km/h 3.5 km/h 68 % 0 mm
10:29 25.1 °C 18.9 °C 1006.7 hPa NNE 9.7 km/h 7.6 km/h 69 % 0 mm
10:34 25.4 °C 18.3 °C 1007 hPa NE 11.1 km/h 5.8 km/h 65 % 0 mm
10:39 25.4 °C 18.9 °C 1006.7 hPa NE 7.4 km/h 4.5 km/h 67 % 0 mm
10:44 26.1 °C 18.9 °C 1007 hPa SSE 14.8 km/h 7.6 km/h 65 % 0 mm
10:49 26.1 °C 18.9 °C 1007 hPa SSW 18.5 km/h 13.8 km/h 65 % 0 mm
10:54 25.3 °C 19.4 °C 1006.7 hPa SSW 25.7 km/h 15.4 km/h 70 % 0 mm
10:59 24.7 °C 19.6 °C 1006.7 hPa South 22.2 km/h 11.6 km/h 73 % 0 mm
11:04 23.9 °C 18.8 °C 1007 hPa SSW 25.9 km/h 16.6 km/h 73 % 0 mm
11:09 23.2 °C 18.8 °C 1007 hPa South 18.5 km/h 12.2 km/h 76 % 0 mm
11:14 22.8 °C 18.6 °C 1007 hPa South 22.2 km/h 15.6 km/h 77 % 0 mm
11:19 22.4 °C 18.4 °C 1006.7 hPa South 18.5 km/h 9 km/h 78 % 0 mm
11:24 22.5 °C 18.7 °C 1007 hPa South 18.5 km/h 13.8 km/h 79 % 0 mm
11:29 22.7 °C 18.7 °C 1007 hPa South 16.7 km/h 10.5 km/h 78 % 0 mm
11:34 22.7 °C 18.6 °C 1007 hPa South 16.7 km/h 10.8 km/h 78 % 0 mm
11:39 22.8 °C 18.9 °C 1007 hPa South 8 km/h 5.3 km/h 79 % 0 mm
11:44 23.2 °C 19.1 °C 1007 hPa South 13 km/h 4.5 km/h 78 % 0 mm
11:49 23.3 °C 19.2 °C 1007 hPa South 7.4 km/h 5.3 km/h 78 % 0 mm
11:54 23.5 °C 19 °C 1007 hPa South 5.6 km/h 1.4 km/h 76 % 0 mm
11:59 23.7 °C 18.8 °C 1007 hPa South 9.3 km/h 4.5 km/h 74 % 0 mm
12:04 24 °C 18.8 °C 1007 hPa South 3.7 km/h 1 km/h 73 % 0 mm
12:09 24.5 °C 19.1 °C 1006.7 hPa South 7.4 km/h 2.4 km/h 72 % 0 mm
12:14 24.8 °C 19 °C 1006.7 hPa South 5.6 km/h 1.3 km/h 70 % 0 mm
12:19 25.2 °C 19.3 °C 1006.7 hPa South 8 km/h 4.7 km/h 70 % 0 mm
12:24 25.3 °C 19.2 °C 1006.7 hPa South 8 km/h 7.4 km/h 69 % 0 mm
12:29 25.4 °C 19.3 °C 1006.7 hPa South 3.7 km/h 1.9 km/h 69 % 0 mm
12:34 25.8 °C 19.2 °C 1006.7 hPa South 5.6 km/h 2.3 km/h 67 % 0 mm
12:39 26.2 °C 19.3 °C 1007 hPa South 6.4 km/h 5 km/h 66 % 0 mm
12:44 26.7 °C 19.6 °C 1007 hPa South 8 km/h 4 km/h 65 % 0 mm
12:49 26.9 °C 19.3 °C 1007 hPa South 7.4 km/h 6.4 km/h 63 % 0 mm
12:54 27.2 °C 19.3 °C 1007 hPa SSE 9.3 km/h 8.2 km/h 62 % 0 mm
12:59 27.9 °C 19.7 °C 1007.3 hPa South 9.7 km/h 11.3 km/h 61 % 0 mm
13:04 28.2 °C 19.4 °C 1007.3 hPa SSE 14.8 km/h 4.8 km/h 59 % 0 mm
13:09 28.1 °C 19.3 °C 1007.3 hPa South 13 km/h 14.3 km/h 59 % 0 mm
13:14 27.7 °C 19.2 °C 1007.3 hPa South 11.1 km/h 4.2 km/h 60 % 0 mm
13:19 27.4 °C 18.7 °C 1007.3 hPa South 18.5 km/h 9.7 km/h 59 % 0 mm
13:24 27.4 °C 19.3 °C 1007 hPa South 18.5 km/h 9.3 km/h 61 % 0 mm
13:29 27.8 °C 19.1 °C 1006.7 hPa South 22.2 km/h 14 km/h 59 % 0 mm
13:34 27.7 °C 18.9 °C 1006.7 hPa South 14.8 km/h 12.7 km/h 59 % 0 mm
13:39 27.3 °C 19.2 °C 1007 hPa South 19.3 km/h 10.6 km/h 61 % 0 mm
13:44 27 °C 18.8 °C 1007 hPa SSW 16.7 km/h 6.9 km/h 61 % 0 mm
13:49 27.1 °C 18.4 °C 1007.3 hPa SSW 18.5 km/h 12.7 km/h 59 % 0 mm
13:54 27.1 °C 18.6 °C 1007 hPa South 16.7 km/h 8.4 km/h 60 % 0 mm
13:59 27.2 °C 18.4 °C 1007 hPa South 20.4 km/h 14.3 km/h 59 % 0 mm
14:04 27.1 °C 18.3 °C 1007 hPa South 18.5 km/h 12.9 km/h 59 % 0 mm
14:09 27 °C 18.6 °C 1007 hPa SSW 18.5 km/h 15 km/h 60 % 0 mm
14:14 26.9 °C 18.8 °C 1007 hPa SSW 18.5 km/h 11.1 km/h 61 % 0 mm
14:19 26.8 °C 18.6 °C 1006.7 hPa SSW 18.5 km/h 12.9 km/h 61 % 0 mm
14:24 26.8 °C 18.6 °C 1006.7 hPa SSW 16.7 km/h 11.6 km/h 61 % 0 mm
14:29 26.7 °C 18.6 °C 1007 hPa SSW 14.8 km/h 6.1 km/h 61 % 0 mm
14:34 26.7 °C 18.1 °C 1007 hPa SSW 24.1 km/h 12.2 km/h 59 % 0 mm
14:39 26.4 °C 17.8 °C 1007.3 hPa SSW 18.5 km/h 10.8 km/h 59 % 0 mm
14:44 26.3 °C 17.9 °C 1007.3 hPa SW 16.7 km/h 12.4 km/h 60 % 0 mm
14:49 26.1 °C 17.7 °C 1007.3 hPa SW 13 km/h 9.3 km/h 60 % 0 mm
14:54 25.8 °C 17.7 °C 1007 hPa SW 11.1 km/h 8.4 km/h 61 % 0 mm
14:59 25.8 °C 17.7 °C 1007 hPa SW 11.1 km/h 7.6 km/h 61 % 0 mm
15:04 25.9 °C 17.8 °C 1007 hPa SW 9.7 km/h 6.3 km/h 61 % 0 mm
15:09 25.9 °C 17.8 °C 1007 hPa SW 7.4 km/h 4.2 km/h 61 % 0 mm
15:14 26 °C 17.9 °C 1007 hPa SW 3.7 km/h 1 km/h 61 % 0 mm
15:19 26.2 °C 18.1 °C 1007 hPa SW 3.7 km/h 2.3 km/h 61 % 0 mm
15:24 26.4 °C 18.1 °C 1007 hPa SW 5.6 km/h 3.2 km/h 60 % 0 mm
15:29 26.3 °C 17.9 °C 1007.3 hPa SW 4.8 km/h 4.3 km/h 60 % 0 mm
15:34 26.2 °C 17.8 °C 1007.3 hPa North 1.9 km/h 0.3 km/h 60 % 0 mm
15:39 26.4 °C 17.7 °C 1007.3 hPa SW 7.4 km/h 4.8 km/h 59 % 0 mm
15:44 26.4 °C 17.7 °C 1007.7 hPa SW 7.4 km/h 5.6 km/h 59 % 0 mm
15:49 26.4 °C 18 °C 1008 hPa SW 9.3 km/h 7.2 km/h 60 % 0 mm
15:54 26.3 °C 17.9 °C 1008 hPa SW 8 km/h 7.6 km/h 60 % 0 mm
15:59 26.3 °C 17.9 °C 1008 hPa SW 9.3 km/h 7.6 km/h 60 % 0 mm
16:04 26.3 °C 17.9 °C 1008 hPa SW 9.3 km/h 7.2 km/h 60 % 0 mm
16:09 26.3 °C 18.2 °C 1008.4 hPa SW 9.7 km/h 6.6 km/h 61 % 0 mm
16:14 26.4 °C 18 °C 1008.4 hPa SW 9.3 km/h 8 km/h 60 % 0 mm
16:19 26.5 °C 18.1 °C 1008.4 hPa SW 9.7 km/h 6.3 km/h 60 % 0 mm
16:24 26.5 °C 18.1 °C 1008.4 hPa SW 6.4 km/h 4.5 km/h 60 % 0 mm
16:29 26.5 °C 17.8 °C 1008.4 hPa SW 9.7 km/h 8.5 km/h 59 % 0 mm
16:34 26.6 °C 17.1 °C 1008.4 hPa West 16.7 km/h 14.5 km/h 56 % 0 mm
16:39 26.6 °C 16.5 °C 1008.7 hPa West 8 km/h 6 km/h 54 % 0 mm
16:44 26.7 °C 15.7 °C 1008.4 hPa West 14.8 km/h 10.5 km/h 51 % 0 mm
16:49 26.8 °C 15.2 °C 1008.7 hPa West 16.7 km/h 9 km/h 49 % 0 mm
16:54 26.9 °C 15.6 °C 1008.7 hPa West 13 km/h 8.5 km/h 50 % 0 mm
16:59 26.9 °C 15.9 °C 1008.7 hPa West 19.3 km/h 12.7 km/h 51 % 0 mm
17:04 26.7 °C 16 °C 1008.7 hPa WSW 18.5 km/h 10.5 km/h 52 % 0 mm
17:09 26.6 °C 15.9 °C 1009 hPa WSW 11.3 km/h 9.3 km/h 52 % 0 mm
17:14 26.6 °C 15 °C 1009 hPa WSW 18.5 km/h 10.8 km/h 49 % 0 mm
17:19 26.6 °C 14.3 °C 1009 hPa WSW 20.4 km/h 12.4 km/h 47 % 0 mm
17:24 26.6 °C 14.3 °C 1009 hPa WSW 18.5 km/h 12.6 km/h 47 % 0 mm
17:29 26.6 °C 13.3 °C 1009 hPa WSW 18.5 km/h 14.5 km/h 44 % 0 mm
17:34 26.5 °C 11.8 °C 1009 hPa SW 20.9 km/h 15.3 km/h 40 % 0 mm
17:39 26.4 °C 11.7 °C 1009 hPa WSW 29.6 km/h 16.4 km/h 40 % 0 mm
17:44 26.3 °C 11.6 °C 1009 hPa WSW 22.2 km/h 16.1 km/h 40 % 0 mm
17:49 26.2 °C 13 °C 1009 hPa West 22.2 km/h 16.7 km/h 44 % 0 mm
17:54 26 °C 12.8 °C 1009.4 hPa SW 24.1 km/h 17.9 km/h 44 % 0 mm
17:59 25.7 °C 12.6 °C 1009 hPa SW 22.2 km/h 11.6 km/h 44 % 0 mm
18:04 25.6 °C 12.4 °C 1009 hPa North 22.2 km/h 11.6 km/h 44 % 0 mm
18:09 25.4 °C 12.2 °C 1009.4 hPa SSW 18.5 km/h 9.3 km/h 44 % 0 mm
18:14 25.2 °C 12.1 °C 1009.4 hPa SW 27.8 km/h 20.1 km/h 44 % 0 mm
18:19 24.9 °C 11.5 °C 1009.4 hPa SW 29.6 km/h 19.5 km/h 43 % 0 mm
18:24 24.7 °C 11.2 °C 1009.4 hPa SW 31.5 km/h 16.6 km/h 43 % 0 mm
18:29 24.5 °C 11.1 °C 1009.4 hPa SSW 27.8 km/h 13.4 km/h 43 % 0 mm
18:34 24.3 °C 10.9 °C 1009.7 hPa SSW 22.2 km/h 16.4 km/h 43 % 0 mm
18:39 24.1 °C 12.4 °C 1009.7 hPa SSW 29 km/h 14.8 km/h 48 % 0 mm
18:44 23.8 °C 12.7 °C 1010 hPa SSW 25.9 km/h 16.9 km/h 50 % 0 mm
18:49 23.4 °C 12.7 °C 1010 hPa South 18.5 km/h 14.2 km/h 51 % 0 mm
18:54 23.3 °C 12.6 °C 1010.4 hPa SSW 25.9 km/h 18.8 km/h 51 % 0 mm
18:59 23.1 °C 13.8 °C 1010.4 hPa South 22.5 km/h 12.4 km/h 56 % 0 mm
19:04 22.4 °C 14.8 °C 1010.4 hPa SSW 25.9 km/h 15.1 km/h 62 % 0 mm
19:09 21.8 °C 14.9 °C 1010.7 hPa South 25.9 km/h 18.2 km/h 65 % 0 mm
19:14 21.6 °C 14.9 °C 1011.1 hPa South 37 km/h 20.8 km/h 66 % 0 mm
19:19 21.4 °C 14.8 °C 1011.1 hPa SSW 24.1 km/h 13.5 km/h 66 % 0 mm
19:24 21.3 °C 14.7 °C 1010.7 hPa South 37 km/h 20.6 km/h 66 % 0 mm
19:29 21.1 °C 14.5 °C 1010.7 hPa South 37 km/h 20.8 km/h 66 % 0 mm
19:34 20.9 °C 14.3 °C 1010.7 hPa SSW 20.4 km/h 16.6 km/h 66 % 0 mm
19:39 20.8 °C 14.4 °C 1011.1 hPa South 20.4 km/h 15.8 km/h 67 % 0 mm
19:44 20.7 °C 14.3 °C 1011.1 hPa North 22.2 km/h 15.8 km/h 67 % 0 mm
19:49 20.6 °C 14.3 °C 1011.1 hPa SW 25.9 km/h 21.2 km/h 67 % 0 mm
19:54 20.5 °C 14.2 °C 1011.1 hPa South 20.4 km/h 12.4 km/h 67 % 0 mm
19:59 20.5 °C 13.9 °C 1011.1 hPa South 25.9 km/h 19.6 km/h 66 % 0 mm
20:04 20.4 °C 13.2 °C 1011.4 hPa North 20.9 km/h 20 km/h 63 % 0 mm
20:09 20.4 °C 12.7 °C 1011.4 hPa South 31.5 km/h 17.4 km/h 61 % 0 mm
20:14 20.4 °C 12.1 °C 1011.4 hPa SSE 18.5 km/h 11.7 km/h 59 % 0 mm
20:19 20.3 °C 11.2 °C 1011.4 hPa SSW 33.3 km/h 28.2 km/h 56 % 0 mm
20:24 20.2 °C 10.8 °C 1011.4 hPa SSW 27.8 km/h 17.2 km/h 55 % 0 mm
20:29 20 °C 10.4 °C 1011.7 hPa South 32.2 km/h 18.2 km/h 54 % 0 mm
20:34 19.7 °C 10.4 °C 1012.1 hPa SSW 25.9 km/h 16.4 km/h 55 % 0 mm
20:39 19.5 °C 10.2 °C 1012.4 hPa SSW 20.9 km/h 17.4 km/h 55 % 0 mm
20:44 19.3 °C 10.1 °C 1012.4 hPa SSW 24.1 km/h 16.6 km/h 55 % 0 mm
20:49 19.2 °C 9.9 °C 1012.8 hPa SSW 22.5 km/h 16.6 km/h 55 % 0 mm
20:54 19.1 °C 10.1 °C 1012.8 hPa SW 20.4 km/h 13.7 km/h 56 % 0 mm
20:59 18.9 °C 9.9 °C 1012.8 hPa SSW 19.3 km/h 12.9 km/h 56 % 0 mm
21:04 18.7 °C 10 °C 1012.8 hPa SSW 31.5 km/h 20.8 km/h 57 % 0 mm
21:09 18.6 °C 10.4 °C 1012.8 hPa South 22.5 km/h 8.5 km/h 59 % 0 mm
21:14 18.4 °C 10.3 °C 1012.8 hPa South 25.9 km/h 19.6 km/h 59 % 0 mm
21:19 18.3 °C 10.4 °C 1012.8 hPa South 27.8 km/h 11.9 km/h 60 % 0 mm
21:24 18.2 °C 10.6 °C 1012.8 hPa SSW 22.2 km/h 14.5 km/h 61 % 0 mm
21:29 18.1 °C 10.7 °C 1013.1 hPa SSW 25.9 km/h 14.8 km/h 62 % 0 mm
21:34 18 °C 10.6 °C 1013.1 hPa SW 14.8 km/h 7.2 km/h 62 % 0 mm
21:39 17.9 °C 10.8 °C 1013.1 hPa SSW 16.1 km/h 11.9 km/h 63 % 0 mm
21:44 17.9 °C 11 °C 1013.1 hPa South 20.4 km/h 18.2 km/h 64 % 0 mm
21:49 17.8 °C 10.9 °C 1013.4 hPa South 18.5 km/h 10.9 km/h 64 % 0 mm
21:54 17.7 °C 11 °C 1013.4 hPa South 18.5 km/h 13 km/h 65 % 0 mm
21:59 17.6 °C 11.1 °C 1013.8 hPa SSW 16.7 km/h 12.7 km/h 66 % 0 mm
22:04 17.4 °C 11.2 °C 1013.8 hPa SSW 20.4 km/h 13 km/h 67 % 0 mm
22:09 17.3 °C 11.4 °C 1013.8 hPa SSW 24.1 km/h 16.4 km/h 68 % 0 mm
22:14 17.3 °C 11.3 °C 1013.8 hPa SSW 25.9 km/h 15.8 km/h 68 % 0 mm
22:19 17.2 °C 11.4 °C 1013.8 hPa SSW 22.2 km/h 18 km/h 69 % 0 mm
22:24 17.2 °C 11.7 °C 1014.1 hPa SSW 18.5 km/h 13.5 km/h 70 % 0 mm
22:29 17.2 °C 11.9 °C 1014.1 hPa SSW 24.1 km/h 19.6 km/h 71 % 0 mm
22:34 17.2 °C 12.1 °C 1014.1 hPa SW 22.2 km/h 18.2 km/h 72 % 0 mm
22:39 17.1 °C 12 °C 1014.1 hPa SSW 20.9 km/h 12.4 km/h 72 % 0 mm
22:44 17 °C 12.1 °C 1014.1 hPa South 18.5 km/h 8.4 km/h 73 % 0 mm
22:49 16.8 °C 12.2 °C 1014.1 hPa South 24.1 km/h 14.8 km/h 74 % 0 mm
22:54 16.6 °C 12.2 °C 1014.1 hPa SSW 20.4 km/h 15.3 km/h 75 % 0 mm
22:59 16.4 °C 12.2 °C 1014.1 hPa SSW 24.1 km/h 8.2 km/h 76 % 0 mm
23:04 16.3 °C 12.3 °C 1014.4 hPa North 20.4 km/h 14.2 km/h 77 % 0 mm
23:09 16.3 °C 12.2 °C 1014.4 hPa South 18.5 km/h 12.9 km/h 77 % 0 mm
23:14 16.2 °C 12.1 °C 1014.4 hPa SSW 13 km/h 9.3 km/h 77 % 0 mm
23:19 16.1 °C 12.2 °C 1014.4 hPa SSW 27.8 km/h 9.3 km/h 78 % 0 mm
23:24 16 °C 12.2 °C 1014.4 hPa SSW 14.8 km/h 8.2 km/h 78 % 0 mm
23:29 15.8 °C 12.2 °C 1014.4 hPa SSW 17.7 km/h 13.2 km/h 79 % 0 mm
23:34 15.7 °C 12.2 °C 1014.4 hPa SSW 16.7 km/h 10.1 km/h 80 % 0 mm
23:39 15.6 °C 12.2 °C 1014.8 hPa SSW 18.5 km/h 13.5 km/h 80 % 0 mm
23:44 15.6 °C 12.3 °C 1014.8 hPa South 18.5 km/h 13 km/h 81 % 0 mm
23:49 15.6 °C 12.3 °C 1014.8 hPa South 14.8 km/h 9.7 km/h 81 % 0 mm
23:54 15.5 °C 12.4 °C 1014.8 hPa North 18.5 km/h 10.8 km/h 82 % 0 mm
23:59 15.4 °C 12.3 °C 1014.8 hPa South 16.1 km/h 9.2 km/h 82 % 0 mm
Ararat Weather
Compliments of Weather Underground - 2.25 mb
Click here to send mail.


ABOUT

Live weather data from Ararat, Victoria, Australia, 3377
Data uploaded from Cumulus every 5 minutes to Weather Underground.
This site then downloads the raw data for formatting and display.
Metric and imperial data can be displayed. Graphs and historical data available.
Includes Sun and Moon times and rain image live from BOM.

Check out Ararat Weather on Facebook, Twitter and Google +

Help support ongoing costs by checking out the ads





Follow @AraratWeather